createdAt,value
2018-08-20T00:00:58.745Z,100822.98
2018-08-20T00:03:27.405Z,100822.10
2018-08-20T00:05:56.354Z,100824.31
2018-08-20T00:08:25.605Z,100818.12
2018-08-20T00:10:56.638Z,100811.95
2018-08-20T00:13:25.641Z,100812.39
2018-08-20T00:15:54.735Z,100812.84
2018-08-20T00:18:29.041Z,100813.72
2018-08-20T00:20:57.566Z,100812.83
2018-08-20T00:23:26.312Z,100816.78
2018-08-20T00:25:57.993Z,100823.39
2018-08-20T00:28:27.013Z,100826.91
2018-08-20T00:30:55.473Z,100818.91
2018-08-20T00:33:24.126Z,100815.80
2018-08-20T00:35:53.265Z,100816.64
2018-08-20T00:38:21.737Z,100809.09
2018-08-20T00:40:50.240Z,100810.36
2018-08-20T00:43:19.018Z,100806.34
2018-08-20T00:45:47.472Z,100808.93
2018-08-20T00:48:15.938Z,100811.95
2018-08-20T00:50:44.753Z,100808.81
2018-08-20T00:53:13.292Z,100803.91
2018-08-20T00:55:41.745Z,100805.63
2018-08-20T00:58:10.317Z,100803.86
2018-08-20T01:00:38.750Z,100808.20
2018-08-20T01:03:07.597Z,100798.48
2018-08-20T01:05:36.253Z,100791.00
2018-08-20T01:08:04.808Z,100791.91
2018-08-20T01:10:33.307Z,100795.00
2018-08-20T01:13:02.089Z,100787.50
2018-08-20T01:15:30.552Z,100784.84
2018-08-20T01:17:58.980Z,100785.73
2018-08-20T01:20:27.609Z,100787.93
2018-08-20T01:22:56.069Z,100784.85
2018-08-20T01:25:24.580Z,100785.75
2018-08-20T01:27:53.093Z,100776.13
2018-08-20T01:30:21.609Z,100776.12
2018-08-20T01:32:50.123Z,100777.02
2018-08-20T01:35:27.007Z,100771.73
2018-08-20T01:37:55.529Z,100768.64
2018-08-20T01:40:24.779Z,100756.73
2018-08-20T01:42:53.912Z,100763.78
2018-08-20T01:45:22.389Z,100769.08
2018-08-20T01:47:50.829Z,100770.86
2018-08-20T01:50:19.693Z,100761.58
2018-08-20T01:52:48.465Z,100734.63
2018-08-20T01:55:16.960Z,100756.74
2018-08-20T01:57:45.630Z,100760.70
2018-08-20T02:00:14.128Z,100758.49
2018-08-20T02:02:42.697Z,100757.16
2018-08-20T02:05:11.769Z,100748.36
2018-08-20T02:07:40.315Z,100752.76
2018-08-20T02:10:08.823Z,100748.36
2018-08-20T02:12:37.412Z,100742.22
2018-08-20T02:15:05.952Z,100738.27
2018-08-20T02:17:34.413Z,100742.25
2018-08-20T02:20:03.273Z,100736.54
2018-08-20T02:22:32.053Z,100730.80
2018-08-20T02:25:01.107Z,100733.91
2018-08-20T02:27:29.777Z,100727.30
2018-08-20T02:29:58.462Z,100720.70
2018-08-20T02:32:26.905Z,100725.11
2018-08-20T02:34:55.407Z,100720.25
2018-08-20T02:37:30.895Z,100717.60
2018-08-20T02:39:59.749Z,100711.02
2018-08-20T02:42:28.417Z,100711.05
2018-08-20T02:44:57.450Z,100704.89
2018-08-20T02:47:26.025Z,100701.35
2018-08-20T02:49:54.489Z,100697.83
2018-08-20T02:52:22.981Z,100716.35
2018-08-20T02:54:51.499Z,100690.36
2018-08-20T02:57:19.935Z,100690.81
2018-08-20T02:59:48.442Z,100686.84
2018-08-20T03:02:16.953Z,100678.02
2018-08-20T03:04:45.397Z,100674.05
2018-08-20T03:07:14.726Z,100677.58
2018-08-20T03:09:43.532Z,100677.59
2018-08-20T03:12:11.974Z,100672.73
2018-08-20T03:14:40.957Z,100674.52
2018-08-20T03:17:09.593Z,100678.48
2018-08-20T03:19:38.053Z,100677.60
2018-08-20T03:22:06.868Z,100673.20
2018-08-20T03:24:35.562Z,100671.00
2018-08-20T03:27:04.057Z,100668.80
2018-08-20T03:29:32.538Z,100667.04
2018-08-20T03:32:01.296Z,100658.66
2018-08-20T03:34:30.458Z,100657.79
2018-08-20T03:36:58.980Z,100660.87
2018-08-20T03:39:27.669Z,100651.63
2018-08-20T03:41:56.181Z,100651.19
2018-08-20T03:44:24.673Z,100659.13
2018-08-20T03:46:53.665Z,100651.64
2018-08-20T03:49:22.238Z,100648.53
2018-08-20T03:51:50.722Z,100648.53
2018-08-20T03:54:19.771Z,100645.01
2018-08-20T03:56:48.192Z,100650.28
2018-08-20T03:59:30.128Z,100642.34
2018-08-20T04:02:00.057Z,100644.10
2018-08-20T04:04:28.963Z,100648.07
2018-08-20T04:06:58.264Z,100641.01
2018-08-20T04:09:27.257Z,100645.40
2018-08-20T04:11:56.017Z,100641.42
2018-08-20T04:14:24.474Z,100649.80
2018-08-20T04:16:52.961Z,100640.10
2018-08-20T04:19:21.687Z,100643.63
2018-08-20T04:21:50.555Z,100631.72
2018-08-20T04:24:19.371Z,100631.72
2018-08-20T04:26:48.385Z,100622.47
2018-08-20T04:29:16.906Z,100616.31
2018-08-20T04:31:45.425Z,100617.22
2018-08-20T04:34:14.290Z,100611.06
2018-08-20T04:36:42.897Z,100613.71
2018-08-20T04:39:12.104Z,100612.84
2018-08-20T04:41:41.068Z,100614.61
2018-08-20T04:44:09.771Z,100611.97
2018-08-20T04:46:38.280Z,100602.27
2018-08-20T04:49:07.411Z,100601.39
2018-08-20T04:51:35.958Z,100594.77
2018-08-20T04:54:04.412Z,100598.74
2018-08-20T04:56:33.273Z,100605.36
2018-08-20T04:59:01.825Z,100596.09
2018-08-20T05:01:30.280Z,100601.38
2018-08-20T05:03:59.383Z,100587.70
2018-08-20T05:06:28.009Z,100583.28
2018-08-20T05:08:56.453Z,100585.50
2018-08-20T05:11:25.297Z,100576.24
2018-08-20T05:13:53.777Z,100574.92
2018-08-20T05:16:22.216Z,100573.16
2018-08-20T05:18:50.777Z,100566.98
2018-08-20T05:21:19.407Z,100573.60
2018-08-20T05:23:47.845Z,100569.64
2018-08-20T05:26:16.810Z,100564.34
2018-08-20T05:28:45.459Z,100564.34
2018-08-20T05:31:13.918Z,100566.55
2018-08-20T05:33:42.845Z,100571.39
2018-08-20T05:36:11.641Z,100563.90
2018-08-20T05:38:40.933Z,100566.55
2018-08-20T05:41:09.927Z,100560.81
2018-08-20T05:43:39.017Z,100562.14
2018-08-20T05:46:07.494Z,100560.38
2018-08-20T05:48:36.501Z,100561.27
2018-08-20T05:51:05.473Z,100557.73
2018-08-20T05:53:33.964Z,100555.52
2018-08-20T05:56:02.561Z,100546.27
2018-08-20T05:58:31.273Z,100547.59
2018-08-20T06:00:59.818Z,100551.52
2018-08-20T06:03:28.619Z,100552.81
2018-08-20T06:05:57.081Z,100547.07
2018-08-20T06:08:25.544Z,100544.80
2018-08-20T06:10:54.685Z,100546.92
2018-08-20T06:13:23.313Z,100545.05
2018-08-20T06:15:51.766Z,100542.33
2018-08-20T06:18:20.717Z,100536.02
2018-08-20T06:20:49.190Z,100533.17
2018-08-20T06:23:17.626Z,100531.23
2018-08-20T06:25:46.474Z,100530.20
2018-08-20T06:28:15.753Z,100530.59
2018-08-20T06:30:44.189Z,100536.22
2018-08-20T06:33:12.833Z,100538.32
2018-08-20T06:35:41.613Z,100547.52
2018-08-20T06:38:10.816Z,100541.31
2018-08-20T06:40:39.517Z,100539.98
2018-08-20T06:43:08.207Z,100537.73
2018-08-20T06:45:37.033Z,100533.42
2018-08-20T06:48:05.886Z,100532.13
2018-08-20T06:50:34.559Z,100538.25
2018-08-20T06:53:05.845Z,100514.03
2018-08-20T06:55:35.409Z,100536.89
2018-08-20T06:58:03.907Z,100539.95
2018-08-20T07:00:32.969Z,100539.03
2018-08-20T07:03:02.029Z,100538.19
2018-08-20T07:05:30.590Z,100538.32
2018-08-20T07:07:59.054Z,100540.00
2018-08-20T07:10:31.892Z,100540.38
2018-08-20T07:13:12.035Z,100543.83
2018-08-20T07:15:41.409Z,100531.25
2018-08-20T07:18:10.520Z,100529.09
2018-08-20T07:20:39.337Z,100535.85
2018-08-20T07:23:14.501Z,100530.48
2018-08-20T07:25:43.074Z,100537.39
2018-08-20T07:28:11.607Z,100537.73
2018-08-20T07:30:40.365Z,100530.31
2018-08-20T07:33:10.256Z,100521.12
2018-08-20T07:35:39.646Z,100514.38
2018-08-20T07:38:09.861Z,100511.84
2018-08-20T07:40:38.353Z,100519.87
2018-08-20T07:43:06.849Z,100519.34
2018-08-20T07:45:35.557Z,100520.19
2018-08-20T07:48:05.139Z,100515.84
2018-08-20T07:50:33.609Z,100511.28
2018-08-20T07:53:02.565Z,100512.58
2018-08-20T07:55:31.160Z,100508.23
2018-08-20T07:57:59.797Z,100506.51
2018-08-20T08:00:28.533Z,100506.42
2018-08-20T08:02:57.244Z,100510.36
2018-08-20T08:05:25.824Z,100514.41
2018-08-20T08:07:54.697Z,100520.69
2018-08-20T08:10:23.165Z,100517.81
2018-08-20T08:12:51.681Z,100507.31
2018-08-20T08:15:20.633Z,100505.45
2018-08-20T08:17:49.469Z,100505.76
2018-08-20T08:20:17.953Z,100510.51
2018-08-20T08:22:46.985Z,100515.73
2018-08-20T08:25:15.470Z,100505.95
2018-08-20T08:27:44.001Z,100511.22
2018-08-20T08:30:15.727Z,100502.26
2018-08-20T08:32:44.326Z,100502.52
2018-08-20T08:35:13.814Z,100494.71
2018-08-20T08:37:43.724Z,100498.97
2018-08-20T08:40:14.399Z,100505.47
2018-08-20T08:42:43.033Z,100504.05
2018-08-20T08:45:15.051Z,100503.15
2018-08-20T08:47:43.982Z,100498.14
2018-08-20T08:50:12.798Z,100498.83
2018-08-20T08:52:42.049Z,100502.53
2018-08-20T08:55:11.162Z,100472.91
2018-08-20T08:57:40.705Z,100495.12
2018-08-20T09:00:19.680Z,100488.39
2018-08-20T09:02:48.321Z,100491.80
2018-08-20T09:05:17.506Z,100483.52
2018-08-20T09:07:46.101Z,100490.70
2018-08-20T09:10:14.562Z,100481.95
2018-08-20T09:12:43.194Z,100483.58
2018-08-20T09:15:14.557Z,100481.58
2018-08-20T09:17:44.265Z,100477.27
2018-08-20T09:20:15.238Z,100476.69
2018-08-20T09:22:44.897Z,100482.20
2018-08-20T09:25:14.278Z,100484.70
2018-08-20T09:27:44.167Z,100472.42
2018-08-20T09:30:16.017Z,100475.64
2018-08-20T09:32:45.473Z,100471.14
2018-08-20T09:35:13.993Z,100469.17
2018-08-20T09:37:43.161Z,100467.95
2018-08-20T09:40:12.389Z,100470.08
2018-08-20T09:42:41.598Z,100468.22
2018-08-20T09:45:10.617Z,100462.86
2018-08-20T09:47:40.698Z,100467.81
2018-08-20T09:50:12.969Z,100464.73
2018-08-20T09:52:41.629Z,100462.09
2018-08-20T09:55:10.509Z,100460.06
2018-08-20T09:57:39.722Z,100448.27
2018-08-20T10:00:21.637Z,100333.80
2018-08-20T10:02:51.285Z,100447.18
2018-08-20T10:05:20.275Z,100449.94
2018-08-20T10:07:49.337Z,100446.91
2018-08-20T10:10:18.165Z,100447.97
2018-08-20T10:12:47.176Z,100442.91
2018-08-20T10:15:15.952Z,100452.08
2018-08-20T10:17:44.890Z,100446.59
2018-08-20T10:20:14.577Z,100451.55
2018-08-20T10:22:43.697Z,100447.28
2018-08-20T10:25:12.519Z,100451.57
2018-08-20T10:27:41.246Z,100446.48
2018-08-20T10:30:12.110Z,100444.50
2018-08-20T10:32:40.946Z,100434.06
2018-08-20T10:35:10.262Z,100446.28
2018-08-20T10:37:38.836Z,100442.94
2018-08-20T10:40:09.323Z,100436.82
2018-08-20T10:42:38.605Z,100432.51
2018-08-20T10:45:14.849Z,100437.24
2018-08-20T10:47:44.886Z,100445.95
2018-08-20T10:50:15.045Z,100440.85
2018-08-20T10:52:45.426Z,100445.12
2018-08-20T10:55:13.975Z,100443.87
2018-08-20T10:57:43.562Z,100437.84
2018-08-20T11:00:12.769Z,100437.91
2018-08-20T11:02:42.036Z,100431.94
2018-08-20T11:05:14.675Z,100432.08
2018-08-20T11:07:43.253Z,100429.52
2018-08-20T11:10:12.093Z,100422.78
2018-08-20T11:12:40.698Z,100420.33
2018-08-20T11:15:11.227Z,100407.69
2018-08-20T11:17:39.954Z,100417.77
2018-08-20T11:20:11.571Z,100422.68
2018-08-20T11:22:41.353Z,100431.62
2018-08-20T11:25:11.347Z,100413.66
2018-08-20T11:27:40.355Z,100423.98
2018-08-20T11:30:11.513Z,100420.47
2018-08-20T11:32:40.646Z,100425.41
2018-08-20T11:35:09.781Z,100415.72
2018-08-20T11:37:38.349Z,100325.85
2018-08-20T11:40:08.240Z,100422.88
2018-08-20T11:42:36.685Z,100425.94
2018-08-20T11:45:05.685Z,100429.05
2018-08-20T11:47:34.210Z,100438.52
2018-08-20T11:50:03.538Z,100435.50
2018-08-20T11:52:32.453Z,100432.80
2018-08-20T11:55:01.065Z,100433.64
2018-08-20T11:57:29.544Z,100435.62
2018-08-20T11:59:58.439Z,100426.37
2018-08-20T12:02:26.963Z,100418.39
2018-08-20T12:04:55.405Z,100422.75
2018-08-20T12:07:24.519Z,100423.63
2018-08-20T12:09:53.038Z,100424.03
2018-08-20T12:12:21.485Z,100421.79
2018-08-20T12:14:50.223Z,100419.41
2018-08-20T12:17:18.787Z,100419.29
2018-08-20T12:19:47.546Z,100422.33
2018-08-20T12:22:16.615Z,100426.30
2018-08-20T12:24:45.507Z,100430.14
2018-08-20T12:27:14.558Z,100423.62
2018-08-20T12:29:43.348Z,100420.77
2018-08-20T12:32:11.846Z,100416.72
2018-08-20T12:37:08.718Z,100411.36
2018-08-20T12:39:37.413Z,100407.34
2018-08-20T12:42:05.897Z,100395.53
2018-08-20T12:44:34.867Z,100386.27
2018-08-20T12:47:03.397Z,100393.90
2018-08-20T12:49:31.976Z,100384.80
2018-08-20T12:52:01.114Z,100377.16
2018-08-20T12:54:29.825Z,100367.66
2018-08-20T12:56:58.566Z,100357.26
2018-08-20T12:59:27.188Z,100361.95
2018-08-20T13:01:55.665Z,99990.56
2018-08-20T13:04:24.110Z,100353.13
2018-08-20T13:06:52.677Z,100363.66
2018-08-20T13:09:21.753Z,100373.17
2018-08-20T13:11:50.191Z,100368.92
2018-08-20T13:14:18.982Z,100374.81
2018-08-20T13:16:47.523Z,100386.97
2018-08-20T13:19:16.010Z,100396.16
2018-08-20T13:21:45.046Z,100400.50
2018-08-20T13:24:13.557Z,100402.05
2018-08-20T13:26:42.306Z,100402.65
2018-08-20T13:29:11.349Z,100400.41
2018-08-20T13:31:40.015Z,100411.03
2018-08-20T13:34:09.030Z,100415.82
2018-08-20T13:36:37.799Z,100418.48
2018-08-20T13:39:07.863Z,100419.42
2018-08-20T13:41:36.431Z,100422.66
2018-08-20T13:44:05.397Z,100424.15
2018-08-20T13:46:33.901Z,100427.80
2018-08-20T13:49:02.430Z,100424.77
2018-08-20T13:51:31.116Z,100430.13
2018-08-20T13:53:59.637Z,100440.74
2018-08-20T13:56:28.096Z,100449.50
2018-08-20T13:58:57.180Z,100446.93
2018-08-20T14:01:25.646Z,100446.43
2018-08-20T14:03:54.621Z,100444.95
2018-08-20T14:06:23.526Z,100436.82
2018-08-20T14:08:52.023Z,100429.50
2018-08-20T14:11:20.473Z,100433.22
2018-08-20T14:13:49.274Z,100437.19
2018-08-20T14:16:17.786Z,100432.22
2018-08-20T14:18:46.249Z,100431.43
2018-08-20T14:21:15.988Z,100434.38
2018-08-20T14:23:46.472Z,100431.00
2018-08-20T14:26:15.015Z,100435.70
2018-08-20T14:28:44.241Z,100443.22
2018-08-20T14:31:13.161Z,100442.61
2018-08-20T14:33:42.587Z,100446.34
2018-08-20T14:36:11.742Z,100450.97
2018-08-20T14:38:40.310Z,100452.72
2018-08-20T14:41:08.750Z,100456.79
2018-08-20T14:43:37.531Z,100456.98
2018-08-20T14:46:11.658Z,100452.36
2018-08-20T14:48:40.701Z,100454.77
2018-08-20T14:51:09.162Z,100459.89
2018-08-20T14:53:37.902Z,100458.17
2018-08-20T14:56:06.749Z,100461.78
2018-08-20T14:58:35.204Z,100462.78
2018-08-20T15:01:03.703Z,100465.19
2018-08-20T15:03:32.607Z,100468.33
2018-08-20T15:06:01.070Z,100468.59
2018-08-20T15:08:29.724Z,100480.98
2018-08-20T15:10:58.252Z,100479.79
2018-08-20T15:13:26.682Z,100481.39
2018-08-20T15:15:55.158Z,100470.16
2018-08-20T15:18:24.114Z,100470.53
2018-08-20T15:20:52.571Z,100469.34
2018-08-20T15:23:21.069Z,100468.52
2018-08-20T15:25:50.061Z,100477.05
2018-08-20T15:28:18.555Z,100478.69
2018-08-20T15:30:47.225Z,100475.72
2018-08-20T15:33:16.753Z,100474.84
2018-08-20T15:35:45.297Z,100480.56
2018-08-20T15:38:13.769Z,100475.76
2018-08-20T15:40:42.530Z,100468.98
2018-08-20T15:43:10.972Z,100467.37
2018-08-20T15:45:39.772Z,100472.55
2018-08-20T15:48:09.143Z,100480.83
2018-08-20T15:50:37.582Z,100487.31
2018-08-20T15:53:06.219Z,100489.58
2018-08-20T15:55:34.902Z,100490.99
2018-08-20T15:58:03.412Z,100491.13
2018-08-20T16:00:32.885Z,100487.59
2018-08-20T16:03:01.659Z,100492.02
2018-08-20T16:05:30.141Z,100494.98
2018-08-20T16:07:58.661Z,100493.52
2018-08-20T16:10:27.234Z,100489.30
2018-08-20T16:12:56.220Z,100497.37
2018-08-20T16:15:24.726Z,100500.00
2018-08-20T16:17:53.465Z,100502.50
2018-08-20T16:20:21.930Z,100499.53
2018-08-20T16:22:56.968Z,100506.50
2018-08-20T16:25:25.413Z,100511.34
2018-08-20T16:27:53.925Z,100517.94
2018-08-20T16:30:22.682Z,100513.96
2018-08-20T16:32:52.193Z,100513.27
2018-08-20T16:35:20.791Z,100511.19
2018-08-20T16:37:49.683Z,100518.06
2018-08-20T16:40:18.170Z,100516.70
2018-08-20T16:42:46.653Z,100517.12
2018-08-20T16:45:15.493Z,100521.03
2018-08-20T16:47:43.917Z,100519.67
2018-08-20T16:50:13.485Z,100515.80
2018-08-20T16:52:42.394Z,100522.69
2018-08-20T16:55:10.917Z,100519.70
2018-08-20T16:57:40.015Z,100523.12
2018-08-20T17:00:11.213Z,100521.34
2018-08-20T17:02:40.585Z,100529.81
2018-08-20T17:05:11.420Z,100533.29
2018-08-20T17:07:40.461Z,100543.92
2018-08-20T17:10:10.830Z,100545.67
2018-08-20T17:12:39.797Z,100546.52
2018-08-20T17:15:10.593Z,100558.87
2018-08-20T17:17:39.604Z,100561.70
2018-08-20T17:20:09.588Z,100566.13
2018-08-20T17:22:38.038Z,100564.34
2018-08-20T17:25:07.389Z,100567.32
2018-08-20T17:27:36.226Z,100577.66
2018-08-20T17:30:05.569Z,100583.08
2018-08-20T17:32:34.094Z,100591.66
2018-08-20T17:35:03.318Z,100585.59
2018-08-20T17:37:32.092Z,100592.28
2018-08-20T17:40:04.714Z,100594.99
2018-08-20T17:42:33.857Z,100594.57
2018-08-20T17:45:02.933Z,100592.84
2018-08-20T17:47:32.222Z,100594.64
2018-08-20T17:50:01.418Z,100597.77
2018-08-20T17:52:32.362Z,100599.98
2018-08-20T17:55:02.947Z,100604.42
2018-08-20T17:57:31.601Z,100409.61
2018-08-20T18:00:16.290Z,100610.18
2018-08-20T18:02:44.950Z,100617.70
2018-08-20T18:05:13.430Z,100623.89
2018-08-20T18:07:42.264Z,100631.84
2018-08-20T18:10:11.017Z,100630.97
2018-08-20T18:12:40.205Z,100637.16
2018-08-20T18:15:08.709Z,100645.55
2018-08-20T18:17:37.622Z,100653.05
2018-08-20T18:20:06.155Z,100653.94
2018-08-20T18:22:34.639Z,100663.20
2018-08-20T18:25:03.253Z,100668.06
2018-08-20T18:27:35.900Z,100551.10
2018-08-20T18:30:04.740Z,100673.80
2018-08-20T18:32:33.209Z,100677.73
2018-08-20T18:35:01.913Z,100685.66
2018-08-20T18:37:32.385Z,100691.83
2018-08-20T18:40:01.050Z,100693.16
2018-08-20T18:42:34.837Z,100691.82
2018-08-20T18:45:03.476Z,100693.14
2018-08-20T18:47:31.937Z,100694.89
2018-08-20T18:50:00.460Z,100693.56
2018-08-20T18:52:30.397Z,100692.69
2018-08-20T18:54:59.651Z,100698.86
2018-08-20T18:57:32.445Z,100704.59
2018-08-20T19:00:02.254Z,100708.12
2018-08-20T19:02:39.322Z,100701.50
2018-08-20T19:05:12.580Z,100669.27
2018-08-20T19:07:41.521Z,100703.70
2018-08-20T19:10:32.877Z,100705.03
2018-08-20T19:13:01.457Z,100710.31
2018-08-20T19:15:41.192Z,100712.97
2018-08-20T19:18:11.783Z,100709.45
2018-08-20T19:20:41.712Z,100711.20
2018-08-20T19:23:10.681Z,100705.03
2018-08-20T19:25:39.242Z,100705.91
2018-08-20T19:28:13.905Z,100701.05
2018-08-20T19:30:43.151Z,100709.87
2018-08-20T19:33:28.493Z,100710.30
2018-08-20T19:35:57.601Z,100713.81
2018-08-20T19:38:26.121Z,100717.33
2018-08-20T19:41:03.690Z,100716.00
2018-08-20T19:43:41.317Z,100724.81
2018-08-20T19:46:09.825Z,100727.03
2018-08-20T19:48:38.352Z,100720.84
2018-08-20T19:51:08.954Z,100721.73
2018-08-20T19:53:37.474Z,100720.83
2018-08-20T19:56:11.281Z,100720.38
2018-08-20T19:58:42.803Z,100730.94
2018-08-20T20:01:14.920Z,100734.03
2018-08-20T20:03:46.185Z,100737.10
2018-08-20T20:06:15.444Z,100734.89
2018-08-20T20:08:44.157Z,100732.23
2018-08-20T20:11:20.230Z,100735.31
2018-08-20T20:13:52.661Z,100742.35
2018-08-20T20:16:21.401Z,100738.80
2018-08-20T20:18:50.362Z,100734.80
2018-08-20T20:21:19.258Z,100735.22
2018-08-20T20:23:47.818Z,100735.63
2018-08-20T20:26:16.693Z,100743.53
2018-08-20T20:28:45.326Z,100742.19
2018-08-20T20:31:14.009Z,100743.03
2018-08-20T20:33:42.486Z,100751.37
2018-08-20T20:36:14.232Z,100746.92
2018-08-20T20:38:42.906Z,100754.83
2018-08-20T20:41:11.770Z,100755.66
2018-08-20T20:43:40.487Z,100756.09
2018-08-20T20:46:10.194Z,100754.75
2018-08-20T20:48:39.050Z,100756.94
2018-08-20T20:51:07.826Z,100764.41
2018-08-20T20:53:36.388Z,100769.23
2018-08-20T20:56:04.895Z,100768.30
2018-08-20T20:58:36.433Z,100768.30
2018-08-20T21:01:06.389Z,100776.19
2018-08-20T21:03:35.213Z,100774.84
2018-08-20T21:06:04.511Z,100781.41
2018-08-20T21:08:41.345Z,100784.50
2018-08-20T21:11:11.705Z,100784.52
2018-08-20T21:13:40.520Z,100781.02
2018-08-20T21:16:10.599Z,100781.92
2018-08-20T21:18:44.987Z,100785.92
2018-08-20T21:21:14.190Z,100793.88
2018-08-20T21:23:42.752Z,100791.22
2018-08-20T21:26:11.720Z,100794.74
2018-08-20T21:28:57.602Z,100802.25
2018-08-20T21:31:27.408Z,100801.81
2018-08-20T21:33:57.491Z,100804.46
2018-08-20T21:36:26.112Z,100808.00
2018-08-20T21:38:54.625Z,100811.98
2018-08-20T21:41:24.353Z,100811.06
2018-08-20T21:43:52.983Z,100813.70
2018-08-20T21:46:21.558Z,100819.81
2018-08-20T21:48:50.574Z,100823.72
2018-08-20T21:51:28.872Z,100824.53
2018-08-20T21:53:58.044Z,100827.53
2018-08-20T21:56:36.382Z,100820.84
2018-08-20T21:59:05.253Z,100830.86
2018-08-20T22:01:33.746Z,100836.53
2018-08-20T22:04:06.400Z,100841.32
2018-08-20T22:06:35.329Z,100838.11
2018-08-20T22:09:03.882Z,100845.08
2018-08-20T22:11:32.397Z,100418.92
2018-08-20T22:14:00.967Z,100844.88
2018-08-20T22:16:29.769Z,100846.55
2018-08-20T22:18:59.409Z,100857.50
2018-08-20T22:21:28.341Z,100852.62
2018-08-20T22:23:58.752Z,100849.98
2018-08-20T22:26:27.401Z,100857.89
2018-08-20T22:28:56.239Z,100856.16
2018-08-20T22:31:24.785Z,100851.34
2018-08-20T22:33:59.037Z,100858.80
2018-08-20T22:36:30.916Z,100856.10
2018-08-20T22:39:05.700Z,100855.59
2018-08-20T22:41:34.685Z,100855.48
2018-08-20T22:44:03.306Z,100854.09
2018-08-20T22:46:31.745Z,100852.26
2018-08-20T22:49:00.885Z,100858.35
2018-08-20T22:51:30.338Z,100859.15
2018-08-20T22:54:00.458Z,100856.83
2018-08-20T22:56:31.650Z,100859.85
2018-08-20T22:59:07.461Z,100862.82
2018-08-20T23:01:36.072Z,100862.27
2018-08-20T23:04:05.050Z,100867.95
2018-08-20T23:06:33.513Z,100872.71
2018-08-20T23:09:18.313Z,100874.31
2018-08-20T23:11:47.205Z,100882.94
2018-08-20T23:14:15.693Z,100892.48
2018-08-20T23:16:44.261Z,100888.53
2018-08-20T23:19:12.974Z,100892.43
2018-08-20T23:21:43.033Z,100896.35
2018-08-20T23:24:12.481Z,100893.72
2018-08-20T23:26:41.117Z,100902.45
2018-08-20T23:29:10.005Z,100899.81
2018-08-20T23:31:38.969Z,100897.10
2018-08-20T23:34:10.781Z,100901.02
2018-08-20T23:36:40.419Z,100905.34
2018-08-20T23:39:10.798Z,100779.48
2018-08-20T23:41:39.584Z,100903.05
2018-08-20T23:44:08.186Z,100903.02
2018-08-20T23:46:42.103Z,100899.95
2018-08-20T23:49:10.658Z,100902.96
2018-08-20T23:51:39.157Z,100903.42
2018-08-20T23:54:07.798Z,100905.63
2018-08-20T23:56:36.250Z,100911.75
2018-08-20T23:59:04.713Z,100917.88
